createdAt,value
2019-05-05T00:00:54.959Z,20.88
2019-05-05T00:01:55.367Z,20.93
2019-05-05T00:03:55.035Z,20.85
2019-05-05T00:04:54.398Z,20.90
2019-05-05T00:05:54.714Z,20.90
2019-05-05T00:06:54.899Z,20.85
2019-05-05T00:07:54.164Z,20.90
2019-05-05T00:08:54.702Z,20.90
2019-05-05T00:09:55.109Z,20.87
2019-05-05T00:10:54.181Z,20.88
2019-05-05T00:11:54.693Z,20.87
2019-05-05T00:12:55.042Z,20.83
2019-05-05T00:13:55.158Z,20.82
2019-05-05T00:14:54.689Z,20.88
2019-05-05T00:15:55.077Z,20.90
2019-05-05T00:16:54.650Z,20.85
2019-05-05T00:17:55.010Z,20.87
2019-05-05T00:18:54.280Z,20.85
2019-05-05T00:19:54.970Z,20.85
2019-05-05T00:20:55.191Z,20.75
2019-05-05T00:21:55.118Z,20.82
2019-05-05T00:22:54.637Z,20.79
2019-05-05T00:23:55.347Z,20.87
2019-05-05T00:24:54.645Z,20.85
2019-05-05T00:25:55.300Z,20.81
2019-05-05T00:26:55.278Z,20.83
2019-05-05T00:27:54.611Z,20.79
2019-05-05T00:28:55.361Z,20.76
2019-05-05T00:29:54.727Z,20.81
2019-05-05T00:30:55.392Z,20.82
2019-05-05T00:31:54.669Z,20.75
2019-05-05T00:32:54.832Z,20.78
2019-05-05T00:33:54.515Z,20.78
2019-05-05T00:34:55.157Z,20.76
2019-05-05T00:35:54.614Z,20.78
2019-05-05T00:36:55.236Z,20.75
2019-05-05T00:37:54.491Z,20.75
2019-05-05T00:38:55.236Z,20.73
2019-05-05T00:39:54.401Z,20.71
2019-05-05T00:40:55.043Z,20.75
2019-05-05T00:41:55.492Z,20.72
2019-05-05T00:42:54.776Z,20.68
2019-05-05T00:44:54.926Z,20.60
2019-05-05T00:45:55.667Z,20.69
2019-05-05T00:46:55.005Z,20.72
2019-05-05T00:47:54.572Z,20.68
2019-05-05T00:48:55.034Z,20.63
2019-05-05T00:49:56.316Z,20.71
2019-05-05T00:50:55.651Z,20.71
2019-05-05T00:53:55.478Z,20.61
2019-05-05T00:54:55.601Z,20.71
2019-05-05T00:55:54.801Z,20.71
2019-05-05T00:56:54.967Z,20.71
2019-05-05T00:57:54.939Z,20.73
2019-05-05T00:58:55.342Z,20.71
2019-05-05T00:59:54.763Z,20.71
2019-05-05T01:00:54.926Z,20.69
2019-05-05T01:01:55.372Z,20.69
2019-05-05T01:02:54.853Z,20.72
2019-05-05T01:04:55.432Z,20.72
2019-05-05T01:05:55.368Z,20.63
2019-05-05T01:06:54.978Z,20.69
2019-05-05T01:07:55.005Z,20.61
2019-05-05T01:08:55.135Z,20.72
2019-05-05T01:09:55.126Z,20.66
2019-05-05T01:10:55.151Z,20.57
2019-05-05T01:11:55.492Z,20.66
2019-05-05T01:12:55.221Z,20.64
2019-05-05T01:13:55.346Z,20.64
2019-05-05T01:14:55.404Z,20.58
2019-05-05T01:15:55.311Z,20.60
2019-05-05T01:16:55.445Z,20.60
2019-05-05T01:17:55.445Z,20.60
2019-05-05T01:18:55.681Z,20.66
2019-05-05T01:20:03.191Z,20.69
2019-05-05T01:20:55.417Z,20.63
2019-05-05T01:21:55.448Z,20.64
2019-05-05T01:22:55.530Z,20.63
2019-05-05T01:23:55.572Z,20.64
2019-05-05T01:24:55.625Z,20.57
2019-05-05T01:25:55.923Z,20.64
2019-05-05T01:27:55.647Z,20.57
2019-05-05T01:28:56.323Z,20.60
2019-05-05T01:29:55.748Z,20.58
2019-05-05T01:30:55.826Z,20.60
2019-05-05T01:31:55.806Z,20.63
2019-05-05T01:32:56.137Z,20.60
2019-05-05T01:33:55.869Z,20.60
2019-05-05T01:34:55.856Z,20.57
2019-05-05T01:35:55.938Z,20.57
2019-05-05T01:36:55.915Z,20.60
2019-05-05T01:37:55.997Z,20.58
2019-05-05T01:38:55.980Z,20.57
2019-05-05T01:39:56.461Z,20.66
2019-05-05T01:40:56.045Z,20.57
2019-05-05T01:41:56.172Z,20.56
2019-05-05T01:42:56.149Z,20.60
2019-05-05T01:43:56.180Z,20.63
2019-05-05T01:44:56.173Z,20.63
2019-05-05T01:45:56.544Z,20.54
2019-05-05T01:46:56.589Z,20.60
2019-05-05T01:47:56.264Z,20.60
2019-05-05T01:48:56.347Z,20.53
2019-05-05T01:49:56.670Z,20.54
2019-05-05T01:50:56.410Z,20.54
2019-05-05T01:51:56.434Z,20.58
2019-05-05T01:52:56.465Z,20.60
2019-05-05T01:53:56.808Z,20.54
2019-05-05T01:54:56.647Z,20.56
2019-05-05T01:55:56.562Z,20.57
2019-05-05T01:56:56.591Z,20.58
2019-05-05T01:57:56.586Z,20.56
2019-05-05T01:58:56.673Z,20.53
2019-05-05T01:59:56.630Z,20.57
2019-05-05T02:00:57.018Z,20.46
2019-05-05T02:01:56.749Z,20.56
2019-05-05T02:02:56.732Z,20.42
2019-05-05T02:03:57.138Z,20.48
2019-05-05T02:05:56.872Z,20.42
2019-05-05T02:06:56.854Z,20.48
2019-05-05T02:07:57.232Z,20.46
2019-05-05T02:08:56.932Z,20.44
2019-05-05T02:09:56.951Z,20.46
2019-05-05T02:10:57.038Z,20.46
2019-05-05T02:11:57.160Z,20.44
2019-05-05T02:12:57.046Z,20.41
2019-05-05T02:13:57.123Z,20.48
2019-05-05T02:14:57.406Z,20.48
2019-05-05T02:15:57.182Z,20.42
2019-05-05T02:16:57.215Z,20.44
2019-05-05T02:17:57.242Z,20.51
2019-05-05T02:18:57.236Z,20.42
2019-05-05T02:19:57.305Z,20.46
2019-05-05T02:20:57.595Z,20.50
2019-05-05T02:22:57.407Z,20.44
2019-05-05T02:23:57.385Z,20.50
2019-05-05T02:24:57.422Z,20.46
2019-05-05T02:25:57.494Z,20.46
2019-05-05T02:26:57.826Z,20.42
2019-05-05T02:27:57.558Z,20.42
2019-05-05T02:28:57.545Z,20.46
2019-05-05T02:29:57.623Z,20.41
2019-05-05T02:30:57.648Z,20.46
2019-05-05T02:31:57.682Z,20.42
2019-05-05T02:32:58.014Z,20.46
2019-05-05T02:33:57.742Z,20.44
2019-05-05T02:34:57.783Z,20.46
2019-05-05T02:36:57.852Z,20.41
2019-05-05T02:37:57.822Z,20.44
2019-05-05T02:38:57.849Z,20.38
2019-05-05T02:40:03.425Z,20.40
2019-05-05T02:40:57.965Z,20.41
2019-05-05T02:41:57.995Z,20.42
2019-05-05T02:43:58.012Z,20.40
2019-05-05T02:44:58.090Z,20.37
2019-05-05T02:45:58.079Z,20.34
2019-05-05T02:46:58.452Z,20.38
2019-05-05T02:47:58.184Z,20.35
2019-05-05T02:48:58.162Z,20.37
2019-05-05T02:49:58.191Z,20.46
2019-05-05T02:51:02.444Z,20.33
2019-05-05T02:51:58.318Z,20.38
2019-05-05T02:52:58.334Z,20.40
2019-05-05T02:53:58.667Z,20.41
2019-05-05T02:54:58.396Z,20.34
2019-05-05T02:55:58.438Z,20.35
2019-05-05T02:56:58.469Z,20.35
2019-05-05T02:57:58.488Z,20.35
2019-05-05T02:59:58.556Z,20.31
2019-05-05T03:00:58.829Z,20.31
2019-05-05T03:02:58.652Z,20.30
2019-05-05T03:03:58.680Z,20.30
2019-05-05T03:04:58.667Z,20.34
2019-05-05T03:05:58.798Z,20.34
2019-05-05T03:06:58.866Z,20.33
2019-05-05T03:07:59.097Z,20.31
2019-05-05T03:08:58.837Z,20.31
2019-05-05T03:09:58.816Z,20.33
2019-05-05T03:10:58.894Z,20.22
2019-05-05T03:11:58.923Z,20.31
2019-05-05T03:12:59.059Z,20.35
2019-05-05T03:13:58.990Z,20.26
2019-05-05T03:14:59.319Z,20.25
2019-05-05T03:16:59.127Z,20.25
2019-05-05T03:31:28.073Z,20.19
2019-05-05T03:32:28.104Z,20.23
2019-05-05T03:33:28.237Z,20.20
2019-05-05T03:34:28.122Z,20.12
2019-05-05T03:35:28.146Z,20.15
2019-05-05T03:36:28.328Z,20.13
2019-05-05T03:37:28.658Z,20.17
2019-05-05T03:38:28.294Z,20.17
2019-05-05T03:39:28.330Z,20.19
2019-05-05T03:40:28.355Z,20.16
2019-05-05T03:41:28.343Z,20.20
2019-05-05T03:42:28.416Z,20.22
2019-05-05T03:43:28.601Z,20.16
2019-05-05T03:44:28.779Z,20.17
2019-05-05T03:45:28.504Z,20.13
2019-05-05T03:46:28.539Z,20.15
2019-05-05T03:47:28.522Z,20.16
2019-05-05T03:48:28.549Z,20.15
2019-05-05T03:49:28.632Z,20.16
2019-05-05T03:50:28.659Z,20.17
2019-05-05T03:51:28.940Z,20.16
2019-05-05T03:52:28.721Z,20.17
2019-05-05T03:53:28.779Z,20.17
2019-05-05T03:54:28.801Z,20.20
2019-05-05T03:56:28.799Z,20.15
2019-05-05T03:57:28.875Z,20.15
2019-05-05T03:58:28.859Z,20.12
2019-05-05T03:59:28.939Z,20.16
2019-05-05T04:01:29.002Z,20.16
2019-05-05T04:02:29.132Z,20.13
2019-05-05T04:03:29.013Z,20.17
2019-05-05T04:04:29.344Z,20.19
2019-05-05T04:05:29.124Z,20.16
2019-05-05T04:06:29.256Z,20.15
2019-05-05T04:07:29.137Z,20.13
2019-05-05T04:08:29.167Z,20.16
2019-05-05T04:09:29.198Z,20.16
2019-05-05T04:10:29.280Z,20.10
2019-05-05T04:11:29.569Z,20.16
2019-05-05T04:12:29.642Z,20.17
2019-05-05T04:13:29.326Z,20.20
2019-05-05T04:14:29.406Z,20.13
2019-05-05T04:15:29.441Z,20.13
2019-05-05T04:16:29.459Z,20.15
2019-05-05T04:17:29.441Z,20.16
2019-05-05T04:18:30.130Z,20.17
2019-05-05T04:19:29.502Z,20.19
2019-05-05T04:21:33.728Z,20.15
2019-05-05T04:22:29.603Z,20.15
2019-05-05T04:23:29.686Z,20.17
2019-05-05T04:24:29.657Z,20.15
2019-05-05T04:25:29.991Z,20.15
2019-05-05T04:26:29.773Z,20.15
2019-05-05T04:27:29.804Z,20.16
2019-05-05T04:28:29.780Z,20.12
2019-05-05T04:29:29.815Z,20.12
2019-05-05T04:30:29.850Z,20.12
2019-05-05T04:31:30.242Z,20.16
2019-05-05T04:32:30.290Z,20.16
2019-05-05T04:33:30.091Z,20.17
2019-05-05T04:34:29.977Z,20.10
2019-05-05T04:35:30.010Z,20.17
2019-05-05T04:36:30.083Z,20.17
2019-05-05T04:37:30.063Z,20.16
2019-05-05T04:38:30.142Z,20.15
2019-05-05T04:39:30.580Z,20.15
2019-05-05T04:40:30.155Z,20.15
2019-05-05T04:41:30.241Z,20.12
2019-05-05T04:42:30.270Z,20.15
2019-05-05T04:43:30.247Z,20.13
2019-05-05T04:44:30.283Z,20.17
2019-05-05T04:45:30.309Z,20.15
2019-05-05T04:46:30.691Z,20.12
2019-05-05T04:47:30.384Z,20.13
2019-05-05T04:48:30.537Z,20.04
2019-05-05T04:49:30.513Z,20.15
2019-05-05T04:50:30.521Z,20.19
2019-05-05T04:51:43.537Z,20.12
2019-05-05T04:52:30.531Z,20.15
2019-05-05T04:54:30.636Z,20.16
2019-05-05T04:55:30.768Z,20.15
2019-05-05T04:56:30.647Z,20.12
2019-05-05T04:57:30.690Z,20.16
2019-05-05T04:58:31.168Z,20.13
2019-05-05T05:00:30.769Z,20.16
2019-05-05T05:01:30.895Z,20.16
2019-05-05T05:02:30.895Z,20.17
2019-05-05T05:03:30.914Z,20.17
2019-05-05T05:04:31.199Z,20.17
2019-05-05T05:05:30.927Z,20.15
2019-05-05T05:06:30.967Z,20.16
2019-05-05T05:07:31.045Z,20.16
2019-05-05T05:08:31.076Z,20.16
2019-05-05T05:09:31.054Z,20.20
2019-05-05T05:10:31.229Z,20.13
2019-05-05T05:11:31.420Z,20.15
2019-05-05T05:12:31.199Z,20.17
2019-05-05T05:13:31.329Z,20.16
2019-05-05T05:14:33.561Z,20.17
2019-05-05T05:15:31.237Z,20.12
2019-05-05T05:16:31.324Z,20.16
2019-05-05T05:17:31.354Z,20.15
2019-05-05T05:18:31.682Z,20.20
2019-05-05T05:19:33.396Z,20.22
2019-05-05T05:20:31.401Z,20.13
2019-05-05T05:21:31.424Z,20.13
2019-05-05T05:22:33.345Z,20.16
2019-05-05T05:23:31.491Z,20.22
2019-05-05T05:24:31.578Z,20.17
2019-05-05T05:25:31.861Z,20.16
2019-05-05T05:26:33.487Z,20.19
2019-05-05T05:28:31.641Z,20.17
2019-05-05T05:29:31.720Z,20.17
2019-05-05T05:30:31.703Z,20.17
2019-05-05T05:31:33.630Z,20.17
2019-05-05T05:33:31.851Z,20.16
2019-05-05T05:34:31.880Z,20.16
2019-05-05T05:35:33.607Z,20.16
2019-05-05T05:36:33.827Z,20.13
2019-05-05T05:37:34.148Z,20.16
2019-05-05T05:38:31.949Z,20.19
2019-05-05T05:39:33.601Z,20.17
2019-05-05T05:40:34.080Z,20.20
2019-05-05T05:42:33.612Z,20.19
2019-05-05T05:43:33.488Z,20.15
2019-05-05T05:44:33.848Z,20.16
2019-05-05T05:45:34.124Z,20.23
2019-05-05T05:46:33.435Z,20.20
2019-05-05T05:47:33.833Z,20.22
2019-05-05T05:48:34.222Z,20.16
2019-05-05T05:49:34.499Z,20.26
2019-05-05T05:50:33.916Z,20.25
2019-05-05T05:51:34.105Z,20.19
2019-05-05T05:52:34.337Z,20.30
2019-05-05T05:53:34.741Z,20.22
2019-05-05T05:54:34.047Z,20.20
2019-05-05T05:55:34.322Z,20.30
2019-05-05T05:56:34.323Z,20.35
2019-05-05T05:57:34.564Z,20.23
2019-05-05T05:58:33.780Z,20.25
2019-05-05T05:59:33.964Z,20.30
2019-05-05T06:00:34.319Z,20.31
2019-05-05T06:01:34.596Z,20.26
2019-05-05T06:02:33.469Z,20.33
2019-05-05T06:03:33.924Z,20.26
2019-05-05T06:04:34.046Z,20.27
2019-05-05T06:05:34.335Z,20.30
2019-05-05T06:06:34.648Z,20.35
2019-05-05T06:07:33.613Z,20.27
2019-05-05T06:08:34.703Z,20.34
2019-05-05T06:09:34.416Z,20.33
2019-05-05T06:10:33.919Z,20.33
2019-05-05T06:11:34.429Z,20.38
2019-05-05T06:12:33.632Z,20.41
2019-05-05T06:14:34.082Z,20.33
2019-05-05T06:15:33.889Z,20.34
2019-05-05T06:16:34.135Z,20.31
2019-05-05T06:17:34.364Z,20.38
2019-05-05T06:18:34.574Z,20.38
2019-05-05T06:19:33.814Z,20.40
2019-05-05T06:20:34.362Z,20.40
2019-05-05T06:21:33.885Z,20.42
2019-05-05T06:22:34.422Z,20.40
2019-05-05T06:23:34.398Z,20.38
2019-05-05T06:24:34.601Z,20.42
2019-05-05T06:25:34.254Z,20.40
2019-05-05T06:26:34.362Z,20.41
2019-05-05T06:27:34.181Z,20.46
2019-05-05T06:28:34.218Z,20.46
2019-05-05T06:30:33.863Z,20.41
2019-05-05T06:31:34.242Z,20.44
2019-05-05T06:32:34.250Z,20.48
2019-05-05T06:33:34.771Z,20.48
2019-05-05T06:34:34.007Z,20.42
2019-05-05T06:35:33.961Z,20.42
2019-05-05T06:36:34.128Z,20.46
2019-05-05T06:37:34.302Z,20.42
2019-05-05T06:38:34.618Z,20.50
2019-05-05T06:39:33.891Z,20.50
2019-05-05T06:40:34.202Z,20.46
2019-05-05T06:41:34.293Z,20.46
2019-05-05T06:42:34.363Z,20.46
2019-05-05T06:43:34.779Z,20.44
2019-05-05T06:44:34.044Z,20.42
2019-05-05T06:45:34.361Z,20.44
2019-05-05T06:46:34.387Z,20.48
2019-05-05T06:47:34.397Z,20.48
2019-05-05T06:49:34.654Z,20.53
2019-05-05T06:50:34.536Z,20.56
2019-05-05T06:51:34.372Z,20.58
2019-05-05T06:52:43.839Z,20.54
2019-05-05T06:53:34.357Z,20.54
2019-05-05T06:54:34.937Z,20.54
2019-05-05T06:56:34.375Z,20.64
2019-05-05T06:57:34.456Z,20.58
2019-05-05T06:59:35.077Z,20.66
2019-05-05T07:01:34.882Z,20.58
2019-05-05T07:02:34.571Z,20.64
2019-05-05T07:03:34.644Z,20.63
2019-05-05T07:04:34.627Z,20.68
2019-05-05T07:05:34.727Z,20.58
2019-05-05T07:06:34.784Z,20.75
2019-05-05T07:07:35.120Z,20.72
2019-05-05T07:08:34.894Z,20.63
2019-05-05T07:09:34.881Z,20.63
2019-05-05T07:10:34.810Z,20.73
2019-05-05T07:11:34.892Z,20.71
2019-05-05T07:12:34.874Z,20.73
2019-05-05T07:13:34.963Z,20.69
2019-05-05T07:14:35.243Z,20.68
2019-05-05T07:16:35.015Z,20.71
2019-05-05T07:18:35.116Z,20.73
2019-05-05T07:19:35.197Z,20.71
2019-05-05T07:20:35.189Z,20.71
2019-05-05T07:21:35.456Z,20.72
2019-05-05T07:22:35.236Z,20.78
2019-05-05T07:23:35.271Z,20.75
2019-05-05T07:24:35.401Z,20.81
2019-05-05T07:26:35.372Z,20.81
2019-05-05T07:27:35.344Z,20.88
2019-05-05T07:29:35.757Z,20.75
2019-05-05T07:30:35.488Z,20.79
2019-05-05T07:31:35.472Z,20.82
2019-05-05T07:32:35.551Z,20.87
2019-05-05T07:34:35.573Z,20.81
2019-05-05T07:35:35.650Z,20.83
2019-05-05T07:36:35.991Z,20.85
2019-05-05T07:38:35.746Z,20.90
2019-05-05T07:39:35.723Z,20.83
2019-05-05T07:40:35.808Z,20.85
2019-05-05T07:42:35.882Z,20.88
2019-05-05T07:43:36.207Z,20.85
2019-05-05T07:44:35.932Z,20.81
2019-05-05T07:45:35.966Z,20.90
2019-05-05T07:47:36.306Z,20.88
2019-05-05T07:48:36.064Z,20.88
2019-05-05T07:49:36.148Z,20.85
2019-05-05T07:50:36.561Z,20.96
2019-05-05T07:53:36.315Z,20.94
2019-05-05T07:54:36.541Z,20.96
2019-05-05T07:55:36.278Z,20.97
2019-05-05T07:56:36.383Z,20.97
2019-05-05T07:57:36.769Z,20.97
2019-05-05T07:58:36.868Z,20.98
2019-05-05T07:59:36.577Z,20.97
2019-05-05T08:00:36.412Z,21.01
2019-05-05T08:03:36.594Z,21.06
2019-05-05T08:04:37.163Z,21.05
2019-05-05T08:06:36.730Z,21.06
2019-05-05T08:07:36.665Z,21.05
2019-05-05T08:08:36.854Z,21.09
2019-05-05T08:09:36.851Z,21.09
2019-05-05T08:10:36.865Z,21.03
2019-05-05T08:11:37.113Z,21.06
2019-05-05T08:12:37.128Z,21.03
2019-05-05T08:13:36.891Z,21.05
2019-05-05T08:14:36.901Z,21.06
2019-05-05T08:15:36.921Z,21.03
2019-05-05T08:17:38.980Z,21.09
2019-05-05T08:18:37.352Z,21.11
2019-05-05T08:19:37.091Z,21.12
2019-05-05T08:21:37.115Z,21.08
2019-05-05T08:22:37.159Z,21.18
2019-05-05T08:23:37.290Z,21.19
2019-05-05T08:24:37.402Z,21.15
2019-05-05T08:25:40.348Z,21.16
2019-05-05T08:27:37.308Z,21.27
2019-05-05T08:28:37.337Z,21.27
2019-05-05T08:30:37.528Z,21.30
2019-05-05T08:32:37.470Z,21.22
2019-05-05T08:33:37.565Z,21.36
2019-05-05T08:35:38.022Z,21.33
2019-05-05T08:36:39.420Z,21.34
2019-05-05T08:37:37.720Z,21.34
2019-05-05T08:38:37.691Z,21.33
2019-05-05T08:39:37.991Z,21.31
2019-05-05T08:40:37.733Z,21.36
2019-05-05T08:41:38.060Z,21.40
2019-05-05T08:42:37.780Z,21.40
2019-05-05T08:43:37.817Z,21.40
2019-05-05T08:44:37.844Z,21.38
2019-05-05T08:45:37.900Z,21.49
2019-05-05T08:46:38.257Z,21.49
2019-05-05T08:47:37.986Z,21.42
2019-05-05T08:48:38.106Z,21.43
2019-05-05T08:49:37.974Z,21.45
2019-05-05T08:50:37.999Z,21.51
2019-05-05T08:51:38.017Z,21.52
2019-05-05T08:52:38.402Z,21.56
2019-05-05T08:53:44.968Z,21.51
2019-05-05T08:54:38.152Z,21.46
2019-05-05T08:55:38.253Z,21.45
2019-05-05T08:57:38.385Z,21.58
2019-05-05T08:59:38.688Z,21.53
2019-05-05T09:00:38.342Z,21.58
2019-05-05T09:01:38.479Z,21.63
2019-05-05T09:03:38.469Z,21.56
2019-05-05T09:05:38.538Z,21.66
2019-05-05T09:06:38.849Z,21.67
2019-05-05T09:07:44.987Z,21.68
2019-05-05T09:08:38.809Z,21.71
2019-05-05T09:09:38.724Z,21.67
2019-05-05T09:10:38.708Z,21.71
2019-05-05T09:11:38.763Z,21.70
2019-05-05T09:12:39.046Z,21.73
2019-05-05T09:13:39.048Z,21.74
2019-05-05T09:14:39.024Z,21.71
2019-05-05T09:15:38.827Z,21.66
2019-05-05T09:16:39.473Z,21.73
2019-05-05T09:17:39.066Z,21.82
2019-05-05T09:18:40.312Z,21.79
2019-05-05T09:19:38.983Z,21.79
2019-05-05T09:20:39.011Z,21.68
2019-05-05T09:21:38.991Z,21.81
2019-05-05T09:22:39.054Z,21.71
2019-05-05T09:23:39.119Z,21.82
2019-05-05T09:24:39.153Z,21.74
2019-05-05T09:25:39.753Z,21.83
2019-05-05T09:26:39.150Z,21.82
2019-05-05T09:27:39.268Z,21.81
2019-05-05T09:28:39.395Z,21.81
2019-05-05T09:29:39.346Z,21.86
2019-05-05T09:30:39.354Z,21.91
2019-05-05T09:31:39.405Z,21.89
2019-05-05T09:32:39.677Z,21.89
2019-05-05T09:33:39.524Z,21.93
2019-05-05T09:34:39.414Z,21.85
2019-05-05T09:35:39.503Z,21.94
2019-05-05T09:37:39.566Z,21.90
2019-05-05T09:38:39.677Z,22.01
2019-05-05T09:39:40.095Z,22.01
2019-05-05T09:40:39.604Z,22.08
2019-05-05T09:41:39.728Z,22.02
2019-05-05T09:42:39.890Z,22.09
2019-05-05T09:43:39.812Z,22.04
2019-05-05T09:44:39.886Z,21.98
2019-05-05T09:45:39.772Z,22.05
2019-05-05T09:46:40.175Z,22.08
2019-05-05T09:47:40.240Z,22.05
2019-05-05T09:49:40.037Z,22.08
2019-05-05T09:50:39.994Z,22.05
2019-05-05T09:52:40.166Z,22.01
2019-05-05T09:53:40.108Z,22.02
2019-05-05T09:54:40.165Z,22.01
2019-05-05T09:55:40.197Z,21.98
2019-05-05T09:56:40.245Z,22.02
2019-05-05T09:57:40.248Z,21.98
2019-05-05T10:00:40.413Z,22.01
2019-05-05T10:02:40.732Z,21.93
2019-05-05T10:03:40.471Z,21.94
2019-05-05T10:04:40.451Z,21.94
2019-05-05T10:06:40.465Z,21.90
2019-05-05T10:07:40.538Z,21.91
2019-05-05T10:10:40.976Z,21.90
2019-05-05T10:11:40.622Z,21.90
2019-05-05T10:12:40.699Z,21.91
2019-05-05T10:15:40.824Z,21.96
2019-05-05T10:16:41.347Z,21.98
2019-05-05T10:17:40.910Z,21.85
2019-05-05T10:19:41.038Z,21.96
2019-05-05T10:22:41.047Z,21.91
2019-05-05T10:23:43.509Z,21.93
2019-05-05T10:25:41.125Z,21.91
2019-05-05T10:26:41.172Z,21.91
2019-05-05T10:27:44.843Z,21.94
2019-05-05T10:28:41.171Z,21.86
2019-05-05T10:29:41.316Z,21.89
2019-05-05T10:31:43.549Z,21.93
2019-05-05T10:32:41.363Z,22.01
2019-05-05T10:34:43.814Z,21.99
2019-05-05T10:35:43.210Z,22.02
2019-05-05T10:36:41.867Z,22.02
2019-05-05T10:37:43.364Z,22.04
2019-05-05T10:41:41.687Z,22.01
2019-05-05T10:42:41.751Z,22.02
2019-05-05T10:43:43.617Z,22.06
2019-05-05T10:44:41.833Z,22.04
2019-05-05T10:45:43.900Z,22.08
2019-05-05T10:46:42.031Z,22.05
2019-05-05T10:47:43.963Z,22.01
2019-05-05T10:48:41.895Z,21.99
2019-05-05T10:49:44.161Z,22.05
2019-05-05T10:51:43.875Z,22.04
2019-05-05T10:52:44.162Z,22.06
2019-05-05T10:53:43.812Z,22.01
2019-05-05T10:54:44.773Z,22.08
2019-05-05T10:55:44.738Z,22.08
2019-05-05T10:57:43.580Z,22.19
2019-05-05T10:58:44.115Z,22.11
2019-05-05T11:00:44.535Z,22.17
2019-05-05T11:02:42.596Z,22.17
2019-05-05T11:03:44.647Z,22.20
2019-05-05T11:04:44.165Z,22.24
2019-05-05T11:05:44.542Z,22.15
2019-05-05T11:06:44.088Z,22.23
2019-05-05T11:07:42.530Z,22.26
2019-05-05T11:08:44.990Z,22.27
2019-05-05T11:09:44.402Z,22.26
2019-05-05T11:10:44.801Z,22.26
2019-05-05T11:11:43.875Z,22.23
2019-05-05T11:12:44.384Z,22.27
2019-05-05T11:15:44.283Z,22.23
2019-05-05T11:17:43.920Z,22.31
2019-05-05T11:18:42.948Z,22.33
2019-05-05T11:20:44.638Z,22.30
2019-05-05T11:21:43.608Z,22.31
2019-05-05T11:22:43.879Z,22.26
2019-05-05T11:23:44.795Z,22.35
2019-05-05T11:24:56.732Z,22.20
2019-05-05T11:25:44.265Z,22.30
2019-05-05T11:26:44.588Z,22.30
2019-05-05T11:27:43.990Z,22.31
2019-05-05T11:28:44.557Z,22.31
2019-05-05T11:29:43.745Z,22.29
2019-05-05T11:31:43.411Z,22.24
2019-05-05T11:32:44.087Z,22.26
2019-05-05T11:33:43.790Z,22.27
2019-05-05T11:34:44.239Z,22.21
2019-05-05T11:35:44.439Z,22.26
2019-05-05T11:36:43.903Z,22.21
2019-05-05T11:37:43.870Z,22.24
2019-05-05T11:38:44.582Z,22.23
2019-05-05T11:39:44.572Z,22.23
2019-05-05T11:40:44.003Z,22.27
2019-05-05T11:41:44.119Z,22.21
2019-05-05T11:42:43.671Z,22.31
2019-05-05T11:43:44.066Z,22.24
2019-05-05T11:45:44.026Z,22.21
2019-05-05T11:46:44.346Z,22.27
2019-05-05T11:47:44.384Z,22.24
2019-05-05T11:48:44.093Z,22.29
2019-05-05T11:49:44.228Z,22.31
2019-05-05T11:50:43.881Z,22.30
2019-05-05T11:51:44.118Z,22.31
2019-05-05T11:52:44.473Z,22.30
2019-05-05T11:53:54.077Z,22.31
2019-05-05T11:54:44.068Z,22.29
2019-05-05T11:55:44.429Z,22.30
2019-05-05T11:56:45.477Z,22.29
2019-05-05T11:57:44.163Z,22.20
2019-05-05T11:58:44.409Z,22.38
2019-05-05T11:59:44.362Z,22.41
2019-05-05T12:00:44.265Z,22.39
2019-05-05T12:02:44.323Z,22.46
2019-05-05T12:03:44.626Z,22.41
2019-05-05T12:04:44.775Z,22.41
2019-05-05T12:05:44.445Z,22.42
2019-05-05T12:06:44.479Z,22.39
2019-05-05T12:07:44.724Z,22.39
2019-05-05T12:09:44.578Z,22.54
2019-05-05T12:10:46.044Z,22.52
2019-05-05T12:11:44.981Z,22.52
2019-05-05T12:12:44.996Z,22.51
2019-05-05T12:14:44.772Z,22.51
2019-05-05T12:15:44.751Z,22.48
2019-05-05T12:16:44.892Z,22.48
2019-05-05T12:18:45.057Z,22.48
2019-05-05T12:19:44.831Z,22.44
2019-05-05T12:20:44.919Z,22.49
2019-05-05T12:21:45.152Z,22.51
2019-05-05T12:22:45.033Z,22.42
2019-05-05T12:23:45.324Z,22.42
2019-05-05T12:24:45.042Z,22.45
2019-05-05T12:25:45.102Z,22.41
2019-05-05T12:27:45.471Z,22.46
2019-05-05T12:28:45.314Z,22.45
2019-05-05T12:29:45.575Z,22.39
2019-05-05T12:30:45.247Z,22.38
2019-05-05T12:32:45.466Z,22.39
2019-05-05T12:33:45.479Z,22.41
2019-05-05T12:34:45.391Z,22.39
2019-05-05T12:35:45.875Z,22.39
2019-05-05T12:36:45.483Z,22.42
2019-05-05T12:38:45.692Z,22.46
2019-05-05T12:39:45.687Z,22.45
2019-05-05T12:40:45.540Z,22.45
2019-05-05T12:41:45.789Z,22.45
2019-05-05T12:42:46.511Z,22.49
2019-05-05T12:44:45.770Z,22.52
2019-05-05T12:48:45.921Z,22.51
2019-05-05T12:49:47.275Z,22.54
2019-05-05T12:50:45.976Z,22.44
2019-05-05T12:51:45.948Z,22.56
2019-05-05T12:53:46.013Z,22.59
2019-05-05T12:54:46.049Z,22.63
2019-05-05T12:55:46.120Z,22.57
2019-05-05T12:56:46.413Z,22.57
2019-05-05T12:57:46.101Z,22.52
2019-05-05T12:58:46.326Z,22.57
2019-05-05T12:59:46.214Z,22.59
2019-05-05T13:00:46.304Z,22.64
2019-05-05T13:01:46.246Z,22.72
2019-05-05T13:02:46.363Z,22.70
2019-05-05T13:03:47.140Z,22.72
2019-05-05T13:04:46.369Z,22.72
2019-05-05T13:05:46.432Z,22.72
2019-05-05T13:06:46.473Z,22.76
2019-05-05T13:07:46.487Z,22.70
2019-05-05T13:08:46.526Z,22.72
2019-05-05T13:09:46.582Z,22.61
2019-05-05T13:10:46.874Z,22.70
2019-05-05T13:12:46.640Z,22.76
2019-05-05T13:13:46.702Z,22.74
2019-05-05T13:14:46.720Z,22.75
2019-05-05T13:16:52.395Z,22.74
2019-05-05T13:18:47.154Z,22.75
2019-05-05T13:19:46.836Z,22.75
2019-05-05T13:20:46.926Z,22.89
2019-05-05T13:22:47.039Z,23.07
2019-05-05T13:23:46.988Z,23.04
2019-05-05T13:24:47.018Z,23.23
2019-05-05T13:25:56.152Z,23.22
2019-05-05T13:26:47.203Z,23.35
2019-05-05T13:27:47.270Z,23.44
2019-05-05T13:28:47.218Z,23.52
2019-05-05T13:29:47.191Z,23.59
2019-05-05T13:30:47.282Z,23.62
2019-05-05T13:31:47.447Z,23.75
2019-05-05T13:32:47.669Z,23.84
2019-05-05T13:33:47.413Z,23.93
2019-05-05T13:34:47.571Z,23.93
2019-05-05T13:36:47.477Z,23.99
2019-05-05T13:38:47.579Z,23.93
2019-05-05T13:39:47.614Z,23.86
2019-05-05T13:42:47.713Z,23.89
2019-05-05T13:44:47.712Z,23.96
2019-05-05T13:45:48.127Z,23.93
2019-05-05T13:47:47.815Z,23.89
2019-05-05T13:50:48.017Z,23.84
2019-05-05T13:51:47.965Z,23.89
2019-05-05T13:52:48.968Z,23.96
2019-05-05T13:53:48.119Z,24.02
2019-05-05T13:54:48.072Z,24.08
2019-05-05T13:55:48.254Z,24.12
2019-05-05T13:56:48.490Z,24.15
2019-05-05T13:57:48.220Z,24.23
2019-05-05T13:59:49.421Z,24.09
2019-05-05T14:00:48.430Z,24.15
2019-05-05T14:01:48.790Z,24.04
2019-05-05T14:02:48.611Z,24.11
2019-05-05T14:03:49.436Z,24.18
2019-05-05T14:04:48.512Z,24.11
2019-05-05T14:05:48.719Z,24.18
2019-05-05T14:06:49.852Z,24.16
2019-05-05T14:07:48.691Z,24.12
2019-05-05T14:08:48.571Z,24.14
2019-05-05T14:10:48.704Z,23.99
2019-05-05T14:11:48.992Z,23.94
2019-05-05T14:12:48.788Z,23.96
2019-05-05T14:13:48.816Z,23.90
2019-05-05T14:14:48.864Z,23.82
2019-05-05T14:15:48.878Z,23.89
2019-05-05T14:17:49.072Z,23.82
2019-05-05T14:18:49.283Z,23.90
2019-05-05T14:20:01.240Z,23.87
2019-05-05T14:20:49.025Z,23.89
2019-05-05T14:21:49.208Z,23.74
2019-05-05T14:22:51.257Z,23.79
2019-05-05T14:23:49.201Z,23.77
2019-05-05T14:24:49.506Z,23.77
2019-05-05T14:25:49.302Z,23.72
2019-05-05T14:26:49.399Z,23.72
2019-05-05T14:27:49.340Z,23.77
2019-05-05T14:28:49.378Z,23.75
2019-05-05T14:29:49.370Z,23.74
2019-05-05T14:30:49.410Z,23.75
2019-05-05T14:31:52.131Z,23.78
2019-05-05T14:32:49.479Z,23.74
2019-05-05T14:33:49.514Z,23.77
2019-05-05T14:34:49.550Z,23.74
2019-05-05T14:35:49.546Z,23.82
2019-05-05T14:36:49.677Z,23.77
2019-05-05T14:38:49.761Z,23.87
2019-05-05T14:39:49.793Z,23.94
2019-05-05T14:40:49.777Z,23.99
2019-05-05T14:41:49.746Z,24.09
2019-05-05T14:42:50.097Z,24.16
2019-05-05T14:43:49.998Z,24.16
2019-05-05T14:44:50.199Z,24.24
2019-05-05T14:45:49.931Z,24.34
2019-05-05T14:48:50.182Z,24.39
2019-05-05T14:50:50.125Z,24.46
2019-05-05T14:54:50.579Z,24.59
2019-05-05T14:55:50.312Z,24.59
2019-05-05T14:57:50.382Z,24.63
2019-05-05T14:58:50.378Z,24.55
2019-05-05T14:59:50.485Z,24.66
2019-05-05T15:00:50.710Z,24.63
2019-05-05T15:01:50.541Z,24.53